Time;durP1;ratioP1;P1;durP2;ratioP2;P2;SDS_P1;SDS_P2;PMS_P1;PMS_P2;Temp;Humidity;BMP_temperature;BMP_pressure;BME280_temperature;BME280_humidity;BME280_pressure;Samples;Min_cycle;Max_cycle;Signal;HPM_P1;HPM_P2
2023/06/10 00:02:10;;;;;;;4.72;4.28;;;;;;;18.22;67.16;93526.16;4972964;28;20393;-74
2023/06/10 00:04:36;;;;;;;5.40;4.25;;;;;;;18.32;67.43;93524.72;4971986;28;20034;-74
2023/06/10 00:07:09;;;;;;;6.20;4.70;;;;;;;18.29;66.61;93525.44;4973655;28;20072;-74
2023/06/10 00:09:38;;;;;;;5.00;4.20;;;;;;;18.34;66.57;93533.19;4970986;28;20080;-73
2023/06/10 00:12:06;;;;;;;5.05;4.40;;;;;;;18.30;66.57;93527.78;4973270;28;20042;-73
2023/06/10 00:14:33;;;;;;;7.80;4.88;;;;;;;18.26;66.32;93526.97;4972594;28;20914;-74
2023/06/10 00:16:59;;;;;;;5.40;4.45;;;;;;;18.14;66.17;93507.59;4973469;28;20512;-74
2023/06/10 00:19:25;;;;;;;4.53;4.13;;;;;;;18.22;66.16;93533.44;4973174;28;20631;-74
2023/06/10 00:21:52;;;;;;;8.80;4.50;;;;;;;17.99;66.89;93512.06;4971698;28;20397;-74
2023/06/10 00:24:18;;;;;;;4.70;4.18;;;;;;;18.16;66.56;93527.63;4972795;28;20038;-74
2023/06/10 00:26:44;;;;;;;7.50;4.90;;;;;;;18.17;66.84;93528.38;4973025;28;20047;-74
2023/06/10 00:29:10;;;;;;;5.78;5.03;;;;;;;18.18;66.53;93529.94;4970130;28;20042;-74
2023/06/10 00:31:36;;;;;;;7.22;6.10;;;;;;;18.24;66.53;93528.47;4968705;28;20038;-74
2023/06/10 00:34:02;;;;;;;7.93;5.68;;;;;;;18.18;66.28;93519.19;4979599;28;20026;-74
2023/06/10 00:36:28;;;;;;;9.48;7.13;;;;;;;18.13;66.64;93512.22;4974264;28;20108;-73
2023/06/10 00:38:53;;;;;;;11.27;6.20;;;;;;;18.23;66.62;93521.53;4974790;28;20440;-75
2023/06/10 00:41:19;;;;;;;8.45;6.05;;;;;;;18.27;66.64;93519.66;4993728;28;20030;-74
2023/06/10 00:43:45;;;;;;;8.23;5.88;;;;;;;18.23;66.62;93518.84;4975831;28;20632;-72
2023/06/10 00:46:12;;;;;;;16.33;6.53;;;;;;;18.22;66.58;93515.38;4976330;28;20038;-74
2023/06/10 00:48:39;;;;;;;10.88;6.28;;;;;;;18.25;66.88;93525.41;4976324;28;20025;-74
2023/06/10 00:51:05;;;;;;;9.85;6.40;;;;;;;18.14;67.15;93507.59;4974685;28;20133;-73
2023/06/10 00:53:32;;;;;;;11.70;7.57;;;;;;;18.01;66.91;93483.63;4993831;28;20124;-74
2023/06/10 00:55:58;;;;;;;9.98;7.10;;;;;;;18.26;66.98;93518.09;4976456;28;20045;-75
2023/06/10 00:58:24;;;;;;;9.93;5.68;;;;;;;18.29;66.55;93520.84;4975990;28;20027;-73
2023/06/10 01:00:49;;;;;;;7.90;5.32;;;;;;;18.20;66.59;93511.50;4976157;28;20026;-73
2023/06/10 01:03:17;;;;;;;9.25;6.13;;;;;;;18.32;66.25;93530.09;4976074;28;20085;-73
2023/06/10 01:05:42;;;;;;;7.50;6.70;;;;;;;18.20;66.51;93523.03;4977592;28;20122;-74
2023/06/10 01:08:35;;;;;;;9.52;7.47;;;;;;;18.10;66.96;93518.31;4976581;28;20038;-74
2023/06/10 01:11:04;;;;;;;10.80;6.25;;;;;;;18.08;66.96;93514.44;4976106;28;20034;-74
2023/06/10 01:13:31;;;;;;;9.10;6.10;;;;;;;18.15;66.53;93525.28;4977667;28;20429;-73
2023/06/10 01:15:57;;;;;;;9.65;6.57;;;;;;;18.25;66.72;93535.41;4976279;28;20022;-73
2023/06/10 01:18:23;;;;;;;9.90;6.50;;;;;;;18.01;67.96;93542.03;4978711;28;20057;-74
2023/06/10 01:20:48;;;;;;;8.50;6.18;;;;;;;17.95;67.91;93528.13;4982787;28;20132;-74
2023/06/10 01:23:15;;;;;;;7.40;6.10;;;;;;;18.01;67.52;93526.69;4975686;28;20315;-74
2023/06/10 01:25:59;;;;;;;8.02;5.97;;;;;;;18.13;67.64;93541.81;4978258;28;20049;-74
2023/06/10 01:28:41;;;;;;;8.27;6.53;;;;;;;18.12;68.16;93534.09;4973393;28;20505;-74
2023/06/10 01:31:40;;;;;;;11.57;7.15;;;;;;;18.14;68.19;93537.22;4985955;28;20641;-73
2023/06/10 01:34:10;;;;;;;8.05;6.38;;;;;;;18.07;67.95;93529.03;4977224;28;20045;-73
2023/06/10 01:36:37;;;;;;;10.93;7.20;;;;;;;18.16;67.99;93532.22;4972625;28;20088;-73
2023/06/10 01:39:04;;;;;;;8.70;6.50;;;;;;;18.17;67.97;93529.16;4975164;28;20125;-74
2023/06/10 01:41:31;;;;;;;6.85;5.97;;;;;;;18.23;67.82;93529.63;4974860;28;20073;-73
2023/06/10 01:43:56;;;;;;;8.70;6.28;;;;;;;18.24;68.13;93520.38;4974357;28;20136;-73
2023/06/10 01:46:22;;;;;;;8.00;7.20;;;;;;;18.31;67.76;93523.16;4975425;28;20030;-74
2023/06/10 01:48:48;;;;;;;9.13;6.75;;;;;;;18.32;67.59;93527.41;4977303;28;20022;-74
2023/06/10 01:51:13;;;;;;;8.27;6.45;;;;;;;18.32;67.29;93528.19;4975432;28;20308;-74
2023/06/10 01:53:39;;;;;;;8.13;6.28;;;;;;;18.29;67.25;93520.06;4991873;28;20030;-73
2023/06/10 01:56:05;;;;;;;9.27;6.50;;;;;;;18.40;67.05;93531.72;4974123;28;20053;-73
2023/06/10 01:58:30;;;;;;;6.80;6.00;;;;;;;18.37;67.25;93516.31;4977800;28;20052;-74
2023/06/10 02:00:56;;;;;;;8.82;6.65;;;;;;;18.37;67.35;93510.94;4971722;28;20421;-73
2023/06/10 02:03:21;;;;;;;9.35;6.30;;;;;;;18.39;66.83;93514.00;4975697;28;20038;-74
2023/06/10 02:05:46;;;;;;;7.40;6.45;;;;;;;18.35;66.45;93502.44;4972059;28;20527;-74
2023/06/10 02:08:12;;;;;;;6.97;5.32;;;;;;;18.19;66.04;93478.41;4974402;28;20541;-74
2023/06/10 02:10:37;;;;;;;5.95;5.35;;;;;;;18.49;65.09;93497.19;4973668;28;20089;-75
2023/06/10 02:13:02;;;;;;;6.43;5.10;;;;;;;17.68;64.79;93373.31;4976585;28;20378;-73
2023/06/10 02:15:28;;;;;;;8.13;5.35;;;;;;;18.54;64.82;93502.25;4974563;28;20599;-74
2023/06/10 02:17:54;;;;;;;8.43;4.70;;;;;;;18.41;65.05;93490.97;4975708;28;20053;-73
2023/06/10 02:20:20;;;;;;;5.60;4.88;;;;;;;18.46;65.12;93496.03;4975925;28;20038;-75
2023/06/10 02:22:46;;;;;;;7.97;4.85;;;;;;;18.49;65.23;93491.81;4976787;28;20405;-74
2023/06/10 02:25:11;;;;;;;8.43;5.82;;;;;;;18.50;65.23;93495.28;4973599;28;20068;-74
2023/06/10 02:27:37;;;;;;;7.80;4.95;;;;;;;18.40;65.12;93484.03;4974474;28;20047;-74
2023/06/10 02:30:02;;;;;;;11.05;5.20;;;;;;;18.35;64.52;93475.50;4974953;28;20751;-75
2023/06/10 02:32:28;;;;;;;7.28;4.85;;;;;;;18.42;64.66;93480.97;4975557;28;20039;-74
2023/06/10 02:34:53;;;;;;;7.40;4.57;;;;;;;18.39;64.58;93482.47;4974073;28;20093;-74
2023/06/10 02:37:20;;;;;;;5.45;4.90;;;;;;;18.24;64.66;93470.00;4974458;28;20080;-74
2023/06/10 02:39:45;;;;;;;5.90;3.58;;;;;;;18.27;64.86;93473.91;4984448;28;20548;-74
2023/06/10 02:42:11;;;;;;;4.60;4.13;;;;;;;18.28;64.84;93475.47;4973600;28;20045;-74
2023/06/10 02:44:36;;;;;;;4.60;4.20;;;;;;;18.17;64.80;93469.19;4976593;28;20811;-73
2023/06/10 02:47:05;;;;;;;7.65;4.28;;;;;;;18.27;65.06;93479.28;4972700;28;20501;-74
2023/06/10 02:49:30;;;;;;;6.13;3.90;;;;;;;18.27;64.90;93484.66;4975886;28;20105;-75
2023/06/10 02:51:56;;;;;;;5.72;4.38;;;;;;;18.21;65.08;93467.28;4972552;28;20034;-73
2023/06/10 02:54:22;;;;;;;4.43;3.85;;;;;;;18.19;65.85;93486.50;4974436;28;20038;-73
2023/06/10 02:56:48;;;;;;;5.90;4.70;;;;;;;18.21;66.20;93483.44;4975496;28;20042;-72
2023/06/10 02:59:14;;;;;;;5.28;4.43;;;;;;;18.15;66.51;93474.94;4973999;28;20050;-74
2023/06/10 03:01:40;;;;;;;8.48;4.63;;;;;;;18.18;66.40;93459.97;4975488;28;20039;-74
2023/06/10 03:04:06;;;;;;;4.10;3.70;;;;;;;18.25;67.03;93481.56;4974102;28;20077;-73
2023/06/10 03:06:35;;;;;;;4.15;3.45;;;;;;;18.24;67.69;93485.38;4973414;28;20493;-73
2023/06/10 03:09:01;;;;;;;4.63;3.80;;;;;;;18.32;67.08;93481.66;4972553;28;20375;-75
2023/06/10 03:11:26;;;;;;;8.30;3.83;;;;;;;18.27;65.92;93488.13;4974148;28;20038;-73
2023/06/10 03:13:53;;;;;;;3.45;3.15;;;;;;;18.29;65.98;93487.75;4974197;28;20497;-74
2023/06/10 03:16:19;;;;;;;4.50;3.63;;;;;;;18.19;66.10;93477.66;4974411;28;20200;-73
2023/06/10 03:18:44;;;;;;;6.45;3.25;;;;;;;18.20;65.81;93479.19;4973933;28;20030;-74
2023/06/10 03:21:10;;;;;;;4.38;3.42;;;;;;;18.20;66.10;93479.97;4973544;28;20038;-74
2023/06/10 03:23:35;;;;;;;5.10;3.90;;;;;;;18.21;66.50;93483.44;4970262;28;20136;-74
2023/06/10 03:26:01;;;;;;;8.23;3.17;;;;;;;18.15;66.55;93472.22;4973624;28;20042;-74
2023/06/10 03:28:27;;;;;;;5.20;3.05;;;;;;;18.26;66.43;93493.88;4971433;28;20383;-75
2023/06/10 03:30:52;;;;;;;5.57;3.75;;;;;;;18.16;66.82;93491.84;4974167;28;20109;-74
2023/06/10 03:33:17;;;;;;;5.68;3.78;;;;;;;18.10;67.66;93507.53;4971155;28;20725;-74
2023/06/10 03:35:43;;;;;;;6.72;3.80;;;;;;;18.15;67.87;93506.44;4974569;28;20780;-74
2023/06/10 03:38:08;;;;;;;8.75;3.53;;;;;;;18.26;67.02;93520.81;4972078;28;20051;-73
2023/06/10 03:40:34;;;;;;;6.07;3.83;;;;;;;18.21;67.14;93519.22;4973072;28;20049;-73
2023/06/10 03:43:00;;;;;;;8.63;4.75;;;;;;;18.24;66.88;93513.09;4975268;28;20117;-74
2023/06/10 03:45:27;;;;;;;7.65;4.45;;;;;;;18.32;66.61;93506.66;4970880;28;20357;-74
2023/06/10 03:47:53;;;;;;;8.23;5.20;;;;;;;18.29;67.04;93515.44;4972235;28;20038;-73
2023/06/10 03:50:18;;;;;;;5.38;4.78;;;;;;;18.20;67.70;93506.13;4973418;28;20061;-74
2023/06/10 03:52:45;;;;;;;7.53;4.85;;;;;;;18.22;67.57;93514.59;4970899;28;20043;-75
2023/06/10 03:55:11;;;;;;;5.38;4.85;;;;;;;18.13;67.90;93490.69;4974303;28;20029;-72
2023/06/10 03:57:36;;;;;;;6.43;5.05;;;;;;;18.10;67.63;93482.53;4972223;28;20034;-74
2023/06/10 04:00:08;;;;;;;5.38;4.90;;;;;;;18.17;67.86;93496.09;4973985;28;20096;-74
2023/06/10 04:02:34;;;;;;;9.80;5.43;;;;;;;18.01;68.06;93469.38;4968768;28;20061;-73
2023/06/10 04:05:00;;;;;;;7.18;6.00;;;;;;;18.16;68.04;93495.31;4973802;28;20042;-74
2023/06/10 04:07:25;;;;;;;7.70;5.53;;;;;;;18.20;68.50;93490.75;4970138;28;20036;-73
2023/06/10 04:09:50;;;;;;;11.70;5.72;;;;;;;18.22;68.40;93498.47;4974030;28;20021;-74
2023/06/10 04:12:16;;;;;;;6.70;4.80;;;;;;;18.28;68.46;93497.00;4970801;28;20045;-73
2023/06/10 04:14:42;;;;;;;5.60;5.10;;;;;;;18.34;68.09;93508.97;4989082;28;20129;-74
2023/06/10 04:17:08;;;;;;;6.43;5.20;;;;;;;18.33;68.05;93510.13;4969576;28;20054;-73
2023/06/10 04:19:33;;;;;;;6.82;5.57;;;;;;;18.30;68.16;93510.84;4973933;28;20255;-74
2023/06/10 04:22:02;;;;;;;6.97;5.68;;;;;;;18.05;68.87;93478.28;4971216;28;20038;-74
2023/06/10 04:24:27;;;;;;;6.45;4.53;;;;;;;18.29;69.21;93520.06;4973225;28;20047;-74
2023/06/10 04:26:53;;;;;;;7.63;5.25;;;;;;;18.31;68.82;93513.16;4969587;28;20160;-74
2023/06/10 04:29:18;;;;;;;6.75;5.90;;;;;;;18.30;68.68;93508.16;4973540;28;20073;-74
2023/06/10 04:31:46;;;;;;;8.70;6.38;;;;;;;18.39;68.80;93519.41;4969599;28;20976;-72
2023/06/10 04:34:11;;;;;;;7.95;7.10;;;;;;;18.34;69.04;93509.72;4970888;28;20525;-74
2023/06/10 04:36:36;;;;;;;7.25;6.47;;;;;;;18.36;69.24;93510.16;4971156;28;20045;-74
2023/06/10 04:39:02;;;;;;;8.55;6.40;;;;;;;18.43;69.21;93514.84;4972012;28;20039;-74
2023/06/10 04:41:27;;;;;;;8.80;7.90;;;;;;;18.50;69.48;93520.28;4974691;28;20807;-74
2023/06/10 04:43:53;;;;;;;9.80;6.80;;;;;;;18.51;69.18;93521.06;4969989;28;20042;-75
2023/06/10 04:46:19;;;;;;;8.95;8.05;;;;;;;18.52;69.23;93507.25;4975442;28;20037;-73
2023/06/10 04:48:44;;;;;;;11.05;7.15;;;;;;;18.60;69.20;93519.63;4972678;28;20667;-73
2023/06/10 04:51:10;;;;;;;10.18;7.63;;;;;;;18.57;69.35;93511.50;4972361;28;20045;-74
2023/06/10 04:53:35;;;;;;;10.85;8.93;;;;;;;18.53;69.09;93514.16;4972742;28;20041;-74
2023/06/10 04:56:00;;;;;;;9.63;8.25;;;;;;;18.42;69.36;93515.97;4968399;28;20667;-74
2023/06/10 04:58:26;;;;;;;10.90;9.10;;;;;;;18.42;69.45;93519.44;4971852;28;20022;-74
2023/06/10 05:00:51;;;;;;;13.15;9.68;;;;;;;18.55;68.50;93511.88;4972344;28;20568;-73
2023/06/10 05:03:17;;;;;;;11.40;8.63;;;;;;;18.57;68.98;93506.13;4973471;28;20096;-74
2023/06/10 05:05:42;;;;;;;10.95;9.70;;;;;;;18.61;69.13;93515.78;4972508;28;20160;-73
2023/06/10 05:08:08;;;;;;;12.18;8.82;;;;;;;18.58;68.54;93511.13;4972705;28;20636;-73
2023/06/10 05:10:34;;;;;;;12.18;10.63;;;;;;;18.54;68.32;93510.31;4970132;28;20038;-73
2023/06/10 05:12:59;;;;;;;10.60;9.32;;;;;;;18.65;67.48;93511.19;4971312;28;20042;-73
2023/06/10 05:15:24;;;;;;;9.88;8.75;;;;;;;18.67;67.54;93508.16;4985214;28;20054;-73
2023/06/10 05:17:50;;;;;;;11.88;9.98;;;;;;;18.67;67.66;93514.31;4971927;28;20046;-74
2023/06/10 05:20:16;;;;;;;12.00;10.30;;;;;;;18.64;68.22;93504.25;4974367;28;20568;-72
2023/06/10 05:22:41;;;;;;;11.75;10.55;;;;;;;18.70;68.52;93508.19;4976902;28;20054;-74
2023/06/10 05:25:07;;;;;;;10.40;9.40;;;;;;;18.67;68.09;93495.47;4975085;28;20038;-74
2023/06/10 05:27:32;;;;;;;10.93;9.82;;;;;;;18.71;67.94;93498.22;4975973;28;20804;-73
2023/06/10 05:29:58;;;;;;;14.35;9.45;;;;;;;18.82;68.16;93515.25;4975994;28;20038;-74
2023/06/10 05:32:23;;;;;;;11.30;9.55;;;;;;;18.75;68.03;93510.56;4980793;28;20036;-74
2023/06/10 05:34:48;;;;;;;10.30;9.30;;;;;;;18.80;68.37;93515.59;4974624;28;20535;-73
2023/06/10 05:37:14;;;;;;;13.35;8.48;;;;;;;18.69;68.50;93513.91;4975855;28;20700;-74
2023/06/10 05:39:39;;;;;;;10.70;9.52;;;;;;;18.68;68.54;93505.06;4975477;28;20037;-74
2023/06/10 05:42:06;;;;;;;10.70;8.55;;;;;;;18.76;68.23;93517.50;4973358;28;20612;-73
2023/06/10 05:44:32;;;;;;;13.68;8.80;;;;;;;18.84;68.51;93513.72;4972929;28;20236;-73
2023/06/10 05:46:58;;;;;;;14.68;8.93;;;;;;;18.82;68.01;93502.53;4973812;28;20442;-73
2023/06/10 05:49:24;;;;;;;13.60;8.68;;;;;;;18.95;68.10;93508.41;4974770;28;20723;-73
2023/06/10 05:51:49;;;;;;;10.27;8.77;;;;;;;19.10;67.28;93514.69;4975195;28;20045;-74
2023/06/10 05:54:15;;;;;;;11.05;9.27;;;;;;;19.04;67.69;93527.75;4972641;28;20256;-74
2023/06/10 05:56:40;;;;;;;9.88;8.88;;;;;;;18.98;68.08;93517.66;4974138;28;20038;-73
2023/06/10 05:59:06;;;;;;;10.38;7.72;;;;;;;18.98;68.06;93515.75;4977035;28;20042;-74
2023/06/10 06:01:31;;;;;;;11.48;8.45;;;;;;;18.97;67.78;93518.84;4973540;28;20924;-73
2023/06/10 06:03:57;;;;;;;9.23;8.20;;;;;;;18.82;67.81;93534.84;4974327;28;20833;-73
2023/06/10 06:06:23;;;;;;;16.23;10.63;;;;;;;18.90;67.61;93522.22;4975644;28;20062;-74
2023/06/10 06:08:48;;;;;;;16.65;9.30;;;;;;;18.81;66.78;93481.38;4974684;28;20601;-72
2023/06/10 06:11:13;;;;;;;16.75;10.38;;;;;;;19.01;67.43;93533.88;4975757;28;20035;-72
2023/06/10 06:13:39;;;;;;;14.40;10.07;;;;;;;18.86;68.41;93527.59;4974156;28;20568;-74
2023/06/10 06:16:04;;;;;;;11.98;9.52;;;;;;;18.91;68.23;93525.69;4975014;28;21017;-74
2023/06/10 06:18:30;;;;;;;16.00;9.85;;;;;;;19.00;68.04;93526.16;4976718;28;20046;-73
2023/06/10 06:20:55;;;;;;;12.02;7.78;;;;;;;19.16;67.04;93529.38;4975598;28;20031;-75
2023/06/10 06:23:20;;;;;;;11.57;9.18;;;;;;;18.84;67.47;93497.53;4975582;28;20031;-75
2023/06/10 06:25:46;;;;;;;15.63;9.38;;;;;;;18.93;66.67;93486.44;4974704;28;20489;-74
2023/06/10 06:28:11;;;;;;;13.57;8.60;;;;;;;19.12;66.48;93525.84;4975467;28;20589;-74
2023/06/10 06:30:36;;;;;;;12.18;8.60;;;;;;;18.96;67.21;93514.59;4974327;28;20095;-75
2023/06/10 06:33:02;;;;;;;16.23;9.65;;;;;;;19.00;67.90;93524.25;4975120;28;21068;-75
2023/06/10 06:35:27;;;;;;;11.43;8.10;;;;;;;19.06;67.11;93525.47;4970522;28;20046;-74
2023/06/10 06:37:53;;;;;;;11.60;8.38;;;;;;;19.23;66.61;93535.59;4966490;28;20046;-74
2023/06/10 06:40:18;;;;;;;12.50;8.20;;;;;;;19.32;66.30;93530.63;4971020;28;20065;-74
2023/06/10 06:42:44;;;;;;;9.95;8.32;;;;;;;19.38;66.54;93519.50;4970766;28;20034;-75
2023/06/10 06:45:10;;;;;;;8.48;7.00;;;;;;;19.36;65.96;93525.25;4966073;28;20043;-74
2023/06/10 06:47:35;;;;;;;10.07;7.55;;;;;;;19.56;64.12;93526.59;4966784;28;20069;-74
2023/06/10 06:50:01;;;;;;;10.05;7.88;;;;;;;19.52;63.85;93531.19;4966848;28;20505;-73
2023/06/10 06:52:26;;;;;;;12.48;8.52;;;;;;;19.33;65.25;93504.47;4967105;28;20057;-73
2023/06/10 06:54:51;;;;;;;11.98;7.55;;;;;;;19.34;66.36;93508.72;4966906;28;20491;-72
2023/06/10 06:57:17;;;;;;;12.65;8.57;;;;;;;19.41;65.16;93519.53;4965790;28;20247;-73
2023/06/10 06:59:42;;;;;;;11.57;7.60;;;;;;;19.37;64.38;93518.72;4968561;28;20038;-74
2023/06/10 07:02:08;;;;;;;13.68;8.45;;;;;;;19.33;65.42;93512.53;4966800;28;20153;-74
2023/06/10 07:04:33;;;;;;;11.88;7.78;;;;;;;19.47;65.83;93515.38;4966444;28;20045;-74
2023/06/10 07:06:58;;;;;;;9.02;6.47;;;;;;;19.33;65.37;93491.75;4966695;28;20508;-75
2023/06/10 07:09:24;;;;;;;12.45;8.25;;;;;;;19.46;65.34;93511.13;4964861;28;20540;-74
2023/06/10 07:11:49;;;;;;;11.15;9.02;;;;;;;19.60;65.09;93511.19;4966794;28;20034;-74
2023/06/10 07:14:15;;;;;;;13.27;8.05;;;;;;;19.43;65.07;93500.28;4965747;28;20042;-73
2023/06/10 07:16:40;;;;;;;11.60;7.65;;;;;;;19.40;64.43;93512.59;4966986;28;20460;-74
2023/06/10 07:19:05;;;;;;;7.88;6.60;;;;;;;19.32;63.96;93508.28;4964541;28;20026;-74
2023/06/10 07:21:32;;;;;;;10.00;6.90;;;;;;;19.16;64.60;93499.72;4967091;28;20215;-73
2023/06/10 07:23:57;;;;;;;11.13;6.15;;;;;;;19.46;63.97;93508.41;4965920;28;20035;-76
2023/06/10 07:26:23;;;;;;;7.05;5.93;;;;;;;19.60;61.61;93495.00;4967420;28;20045;-73
2023/06/10 07:28:48;;;;;;;7.90;6.82;;;;;;;19.66;62.15;93488.13;4965057;28;20683;-74
2023/06/10 07:31:14;;;;;;;6.65;4.43;;;;;;;19.55;61.02;93489.22;4966852;28;20038;-72
2023/06/10 07:33:39;;;;;;;6.35;5.25;;;;;;;19.58;59.99;93499.25;4966288;28;20245;-73
2023/06/10 07:36:06;;;;;;;9.52;4.85;;;;;;;19.70;60.79;93507.78;4964393;28;20595;-75
2023/06/10 07:38:31;;;;;;;9.90;6.40;;;;;;;19.57;61.19;93498.47;4964584;28;20173;-74
2023/06/10 07:40:57;;;;;;;8.32;7.10;;;;;;;19.20;62.70;93495.13;4966541;28;20476;-73
2023/06/10 07:43:24;;;;;;;6.47;5.85;;;;;;;19.60;62.40;93496.97;4966088;28;20734;-73
2023/06/10 07:45:50;;;;;;;6.63;5.32;;;;;;;19.78;60.70;93473.53;4981071;28;20030;-74
2023/06/10 07:48:15;;;;;;;8.95;5.60;;;;;;;19.89;58.58;93484.38;4963819;28;20622;-75
2023/06/10 07:50:42;;;;;;;11.10;5.45;;;;;;;19.90;58.66;93496.69;4965623;28;20046;-75
2023/06/10 07:53:07;;;;;;;5.97;4.32;;;;;;;19.79;56.89;93471.59;4966955;28;20577;-73
2023/06/10 07:55:33;;;;;;;8.05;4.80;;;;;;;20.03;57.29;93495.22;4966574;28;21087;-74
2023/06/10 07:57:58;;;;;;;10.57;4.65;;;;;;;19.57;56.26;93505.78;4967171;28;20034;-73
2023/06/10 08:00:23;;;;;;;7.30;4.85;;;;;;;19.58;56.54;93500.03;4965740;28;20278;-74
2023/06/10 08:02:50;;;;;;;8.57;4.90;;;;;;;19.68;58.53;93507.41;4966738;28;20461;-75
2023/06/10 08:05:15;;;;;;;8.68;5.70;;;;;;;20.06;59.34;93499.84;4966787;28;20038;-74
2023/06/10 08:07:41;;;;;;;6.22;5.05;;;;;;;19.75;58.72;93493.16;4964445;28;20635;-75
2023/06/10 08:10:07;;;;;;;9.43;5.63;;;;;;;19.74;58.76;93500.50;4962846;28;20393;-74
2023/06/10 08:12:36;;;;;;;13.23;4.63;;;;;;;19.49;55.71;93494.19;4964900;28;20037;-73
2023/06/10 08:15:03;;;;;;;6.25;4.60;;;;;;;19.80;55.70;93508.25;4969178;28;20034;-74
2023/06/10 08:17:30;;;;;;;6.53;3.70;;;;;;;19.79;54.05;93490.50;4968391;28;20808;-74
2023/06/10 08:19:56;;;;;;;4.88;4.38;;;;;;;19.91;54.61;93490.16;4970012;28;20572;-75
2023/06/10 08:22:21;;;;;;;5.32;3.13;;;;;;;19.89;53.93;93487.06;4970578;28;20030;-74
2023/06/10 08:24:47;;;;;;;6.90;3.63;;;;;;;19.82;53.51;93489.72;4973257;28;20027;-74
2023/06/10 08:27:12;;;;;;;8.60;4.45;;;;;;;19.91;53.96;93482.06;4969871;28;20945;-74
2023/06/10 08:29:39;;;;;;;5.10;3.88;;;;;;;20.06;52.90;93487.13;4972327;28;20043;-74
2023/06/10 08:32:06;;;;;;;4.40;3.80;;;;;;;20.03;52.36;93468.22;4970793;28;20042;-75
2023/06/10 08:34:35;;;;;;;6.82;4.13;;;;;;;19.98;53.52;93465.91;4971616;28;20339;-74
2023/06/10 08:37:00;;;;;;;6.47;3.97;;;;;;;20.03;54.24;93469.00;4969967;28;20042;-73
2023/06/10 08:39:25;;;;;;;4.45;3.58;;;;;;;20.30;53.23;93461.38;4971886;28;20039;-75
2023/06/10 08:42:07;;;;;;;10.27;4.00;;;;;;;20.44;51.55;93472.22;4969593;28;20445;-74
2023/06/10 08:44:38;;;;;;;7.38;3.95;;;;;;;20.29;52.64;93473.34;4973978;28;20426;-74
2023/06/10 08:47:11;;;;;;;9.13;3.72;;;;;;;20.10;52.05;93462.84;4968306;28;20040;-74
2023/06/10 08:49:41;;;;;;;5.75;3.78;;;;;;;20.19;50.49;93471.38;4971825;28;20042;-74
2023/06/10 08:52:07;;;;;;;6.60;3.92;;;;;;;20.31;51.04;93462.94;4960697;28;20032;-74
2023/06/10 08:54:37;;;;;;;8.73;3.65;;;;;;;20.37;50.85;93458.72;4976761;28;20135;-74
2023/06/10 08:57:05;;;;;;;5.78;3.83;;;;;;;20.26;49.94;93449.03;4977511;28;20080;-74
2023/06/10 08:59:31;;;;;;;7.90;4.05;;;;;;;20.39;50.31;93455.59;4976784;28;20464;-74
2023/06/10 09:01:57;;;;;;;3.28;2.97;;;;;;;20.48;49.39;93456.03;4977344;28;20108;-74
2023/06/10 09:04:24;;;;;;;4.43;4.03;;;;;;;20.60;48.06;93455.66;4975848;28;20507;-74
2023/06/10 09:06:50;;;;;;;3.60;2.72;;;;;;;20.56;48.12;93452.94;4978234;28;20137;-74
2023/06/10 09:09:17;;;;;;;3.13;2.70;;;;;;;20.60;48.08;93448.31;4975957;28;20714;-74
2023/06/10 09:11:43;;;;;;;4.45;3.30;;;;;;;20.63;48.89;93446.03;4976740;28;20571;-73
2023/06/10 09:14:08;;;;;;;5.28;3.15;;;;;;;20.77;48.95;93435.22;4984061;28;20062;-73
2023/06/10 09:16:34;;;;;;;4.45;3.97;;;;;;;20.75;46.98;93454.50;4976589;28;20038;-74
2023/06/10 09:19:00;;;;;;;6.95;4.22;;;;;;;20.63;48.25;93435.97;4975918;28;20163;-74
2023/06/10 09:21:25;;;;;;;5.60;3.40;;;;;;;20.78;47.25;93458.34;4976972;28;20038;-74
2023/06/10 09:23:51;;;;;;;6.47;3.70;;;;;;;20.41;47.19;93439.81;4975244;28;20361;-73
2023/06/10 09:26:18;;;;;;;6.57;4.15;;;;;;;20.75;47.26;93451.03;4976905;28;20455;-73
2023/06/10 09:29:02;;;;;;;7.07;3.75;;;;;;;20.82;46.67;93440.22;4976698;28;20053;-74
2023/06/10 09:31:28;;;;;;;6.25;3.72;;;;;;;20.84;46.88;93435.19;4974897;28;20032;-74
2023/06/10 09:33:53;;;;;;;6.32;4.57;;;;;;;20.86;49.82;93422.09;4994004;28;20035;-74
2023/06/10 09:36:22;;;;;;;4.85;4.35;;;;;;;20.99;48.53;93437.53;4974927;28;20049;-74
2023/06/10 09:38:51;;;;;;;4.32;3.60;;;;;;;21.01;47.79;93429.06;4973704;28;20104;-74
2023/06/10 09:41:16;;;;;;;5.30;4.80;;;;;;;21.16;47.26;93436.00;4977384;28;20056;-74
2023/06/10 09:43:44;;;;;;;5.82;4.10;;;;;;;21.02;47.63;93408.97;4974128;28;20489;-74
2023/06/10 09:46:19;;;;;;;7.35;4.28;;;;;;;20.81;47.48;93411.66;4977884;28;20022;-74
2023/06/10 09:48:46;;;;;;;4.13;3.67;;;;;;;21.00;47.40;93427.50;4975092;28;20543;-75
2023/06/10 09:51:13;;;;;;;4.97;3.45;;;;;;;21.27;47.97;93415.09;4974937;28;20096;-74
2023/06/10 09:53:39;;;;;;;6.20;4.25;;;;;;;21.18;45.35;93390.38;4976448;28;20168;-75
2023/06/10 09:56:05;;;;;;;4.93;3.90;;;;;;;21.20;45.96;93417.81;4972661;28;20042;-73
2023/06/10 09:58:38;;;;;;;4.68;3.95;;;;;;;21.52;45.47;93420.44;4978443;28;20547;-74
2023/06/10 10:01:15;;;;;;;4.38;3.78;;;;;;;21.44;45.81;93403.47;4973955;28;20065;-75
2023/06/10 10:03:48;;;;;;;5.13;4.03;;;;;;;21.55;45.38;93416.22;4974916;28;20522;-74
2023/06/10 10:06:15;;;;;;;6.18;3.47;;;;;;;21.60;46.99;93410.41;4990222;28;20515;-74
2023/06/10 10:08:40;;;;;;;4.90;4.18;;;;;;;21.64;47.99;93395.69;4975659;28;20108;-75
2023/06/10 10:11:06;;;;;;;3.53;3.20;;;;;;;21.89;46.11;93395.59;4971245;28;20505;-75
2023/06/10 10:13:34;;;;;;;4.85;4.22;;;;;;;21.76;43.52;93394.47;4976064;28;20536;-74
2023/06/10 10:16:06;;;;;;;6.28;3.70;;;;;;;21.39;44.76;93387.63;4976116;28;20041;-73
2023/06/10 10:18:32;;;;;;;6.60;4.32;;;;;;;21.69;43.95;93386.41;4974080;28;20124;-75
2023/06/10 10:21:04;;;;;;;6.28;3.92;;;;;;;21.75;45.45;93388.31;4975016;28;20038;-74
2023/06/10 10:23:38;;;;;;;6.45;4.28;;;;;;;21.83;45.43;93380.91;4973631;28;20049;-74
2023/06/10 10:26:09;;;;;;;4.95;3.55;;;;;;;22.04;44.16;93393.59;4984644;28;20038;-74
2023/06/10 10:28:45;;;;;;;7.53;4.15;;;;;;;22.08;44.78;93389.69;4973961;28;20112;-75
2023/06/10 10:31:14;;;;;;;4.78;3.63;;;;;;;21.96;44.27;93371.16;4974746;28;20566;-74
2023/06/10 10:33:46;;;;;;;6.82;3.35;;;;;;;22.21;44.49;93374.53;4975135;28;20039;-75
2023/06/10 10:36:12;;;;;;;5.72;3.63;;;;;;;22.28;43.54;93374.50;4988109;28;20034;-74
2023/06/10 10:38:38;;;;;;;3.75;3.45;;;;;;;22.45;43.41;93388.31;4973421;28;20176;-73
2023/06/10 10:41:05;;;;;;;3.58;2.65;;;;;;;22.52;42.64;93382.84;4974980;28;20501;-73
2023/06/10 10:43:31;;;;;;;4.00;3.30;;;;;;;22.52;42.82;93389.03;4975095;28;20034;-74
2023/06/10 10:46:01;;;;;;;4.00;3.10;;;;;;;22.61;45.31;93385.88;4975054;28;20549;-74
2023/06/10 10:48:33;;;;;;;3.22;2.92;;;;;;;22.56;43.74;93367.31;4984356;28;20509;-72
2023/06/10 10:50:58;;;;;;;4.57;3.33;;;;;;;22.53;43.03;93374.31;4975536;28;20604;-74
2023/06/10 10:53:25;;;;;;;4.60;3.35;;;;;;;22.53;43.56;93378.97;4975091;28;20630;-72
2023/06/10 10:56:04;;;;;;;4.15;2.95;;;;;;;22.63;42.03;93370.00;4976926;28;20074;-73
2023/06/10 10:58:29;;;;;;;7.40;3.55;;;;;;;22.49;42.33;93372.78;4976620;28;20026;-73
2023/06/10 11:00:55;;;;;;;3.95;2.67;;;;;;;22.64;41.74;93341.69;4973119;28;20033;-74
2023/06/10 11:03:20;;;;;;;3.13;2.70;;;;;;;22.56;41.92;93373.50;4974714;28;20592;-72
2023/06/10 11:05:48;;;;;;;4.72;2.90;;;;;;;22.59;41.98;93361.09;4973598;28;20785;-73
2023/06/10 11:08:14;;;;;;;4.20;2.92;;;;;;;22.53;42.08;93360.78;4974742;28;20505;-73
2023/06/10 11:10:41;;;;;;;3.38;3.08;;;;;;;22.46;42.15;93355.41;4974849;28;20037;-72
2023/06/10 11:13:07;;;;;;;3.53;2.80;;;;;;;22.35;41.99;93356.63;4969359;28;20038;-72
2023/06/10 11:15:33;;;;;;;3.15;2.85;;;;;;;22.54;41.50;93359.59;4966217;28;20269;-74
2023/06/10 11:18:10;;;;;;;4.13;2.65;;;;;;;22.64;40.49;93352.53;4966654;28;20050;-73
2023/06/10 11:20:48;;;;;;;5.65;2.88;;;;;;;22.91;43.14;93341.88;4963426;28;20632;-73
2023/06/10 11:23:29;;;;;;;8.15;2.78;;;;;;;22.89;41.32;93342.28;4966094;28;20049;-73
2023/06/10 11:26:15;;;;;;;5.40;2.65;;;;;;;22.93;40.02;93342.22;4966388;28;20491;-74
2023/06/10 11:29:00;;;;;;;3.45;2.90;;;;;;;22.83;42.28;93343.84;4966208;28;20046;-73
2023/06/10 11:31:30;;;;;;;3.97;2.78;;;;;;;23.07;43.05;93332.00;4966946;28;20088;-73